Time;durP1;ratioP1;P1;durP2;ratioP2;P2;SDS_P1;SDS_P2;PMS_P1;PMS_P2;Temp;Humidity;BMP_temperature;BMP_pressure;BME280_temperature;BME280_humidity;BME280_pressure;Samples;Min_cycle;Max_cycle;Signal;HPM_P1;HPM_P2
2021/09/26 00:00:51;;;;;;;13.43;11.80;;;16.70;99.90;;;;;;2064503;28;20454;-70
2021/09/26 00:01:52;;;;;;;12.10;10.80;;;16.60;99.90;;;;;;2068408;28;20033;-71
2021/09/26 00:02:52;;;;;;;11.27;10.07;;;16.60;99.90;;;;;;2071654;28;20369;-70
2021/09/26 00:03:53;;;;;;;10.85;9.75;;;16.60;99.90;;;;;;2068221;28;20018;-70
2021/09/26 00:04:54;;;;;;;11.82;10.70;;;16.60;99.90;;;;;;2064524;28;20026;-70
2021/09/26 00:05:55;;;;;;;12.95;11.55;;;16.60;99.90;;;;;;2072525;28;20022;-70
2021/09/26 00:06:56;;;;;;;11.85;10.38;;;16.60;99.90;;;;;;2069542;28;20025;-70
2021/09/26 00:07:56;;;;;;;17.33;13.30;;;16.60;99.90;;;;;;2064593;28;20030;-70
2021/09/26 00:08:57;;;;;;;12.95;11.65;;;16.60;99.90;;;;;;2063431;28;20486;-70
2021/09/26 00:09:57;;;;;;;15.18;11.63;;;16.60;99.90;;;;;;2064952;28;20064;-70
2021/09/26 00:11:00;;;;;;;16.40;14.55;;;16.60;99.90;;;;;;2072201;28;20025;-70
2021/09/26 00:12:01;;;;;;;13.00;11.70;;;16.60;99.90;;;;;;2068487;28;20077;-70
2021/09/26 00:13:02;;;;;;;13.57;12.18;;;16.60;99.90;;;;;;2071758;28;20108;-70
2021/09/26 00:14:03;;;;;;;15.63;13.80;;;16.60;99.90;;;;;;2064647;28;20057;-70
2021/09/26 00:15:08;;;;;;;13.52;11.30;;;16.60;99.90;;;;;;2065196;28;20066;-70
2021/09/26 00:16:10;;;;;;;13.38;11.98;;;16.60;99.90;;;;;;2073478;28;20108;-70
2021/09/26 00:17:10;;;;;;;11.98;10.80;;;16.60;99.90;;;;;;2072536;28;20026;-71
2021/09/26 00:18:11;;;;;;;13.00;11.73;;;16.60;99.90;;;;;;2070803;28;20049;-70
2021/09/26 00:19:11;;;;;;;14.70;12.65;;;16.60;99.90;;;;;;2064673;28;20025;-70
2021/09/26 00:20:13;;;;;;;13.52;12.15;;;16.60;99.90;;;;;;2065635;28;20045;-70
2021/09/26 00:21:14;;;;;;;13.15;11.85;;;16.60;99.90;;;;;;2064568;28;20033;-70
2021/09/26 00:22:15;;;;;;;15.68;12.75;;;16.60;99.90;;;;;;2065386;28;20489;-71
2021/09/26 00:23:18;;;;;;;16.05;13.52;;;16.60;99.90;;;;;;2068179;28;20474;-70
2021/09/26 00:24:18;;;;;;;14.10;12.43;;;16.60;99.90;;;;;;2072327;28;20072;-70
2021/09/26 00:25:20;;;;;;;14.57;12.20;;;16.60;99.90;;;;;;2068926;28;20081;-70
2021/09/26 00:26:20;;;;;;;13.27;12.00;;;16.60;99.90;;;;;;2065738;28;20035;-70
2021/09/26 00:27:21;;;;;;;12.52;11.25;;;16.50;99.90;;;;;;2070221;28;20030;-70
2021/09/26 00:28:22;;;;;;;14.13;11.20;;;16.50;99.90;;;;;;2071965;28;20083;-70
2021/09/26 00:29:23;;;;;;;14.15;11.85;;;16.50;99.90;;;;;;2072123;28;20038;-70
2021/09/26 00:30:23;;;;;;;14.35;12.38;;;16.50;99.90;;;;;;2064790;28;20035;-70
2021/09/26 00:31:24;;;;;;;14.23;12.40;;;16.50;99.90;;;;;;2063900;28;20537;-70
2021/09/26 00:32:25;;;;;;;14.90;12.05;;;16.50;99.90;;;;;;2070792;28;20454;-70
2021/09/26 00:33:25;;;;;;;13.73;12.07;;;16.50;99.90;;;;;;2065969;28;20551;-70
2021/09/26 00:34:26;;;;;;;13.38;11.77;;;16.50;99.90;;;;;;2064062;28;20041;-70
2021/09/26 00:35:27;;;;;;;14.65;13.13;;;16.50;99.90;;;;;;2067983;28;20109;-70
2021/09/26 00:36:27;;;;;;;13.82;11.68;;;16.50;99.90;;;;;;2064059;28;20030;-70
2021/09/26 00:37:28;;;;;;;12.32;11.13;;;16.50;99.90;;;;;;2063313;28;20031;-70
2021/09/26 00:38:28;;;;;;;14.70;13.10;;;16.50;99.90;;;;;;2070052;28;20050;-70
2021/09/26 00:39:29;;;;;;;12.50;11.27;;;16.50;99.90;;;;;;2071586;28;20030;-70
2021/09/26 00:40:30;;;;;;;14.70;12.13;;;16.50;99.90;;;;;;2071560;28;21099;-70
2021/09/26 00:41:31;;;;;;;14.10;12.20;;;16.50;99.90;;;;;;2067796;28;20104;-71
2021/09/26 00:42:32;;;;;;;14.20;11.85;;;16.50;99.90;;;;;;2071789;28;20026;-70
2021/09/26 00:43:35;;;;;;;14.05;12.60;;;16.50;99.90;;;;;;2065093;28;20022;-70
2021/09/26 00:44:36;;;;;;;12.95;11.57;;;16.50;99.90;;;;;;2064172;28;20026;-70
2021/09/26 00:45:36;;;;;;;15.07;13.30;;;16.50;99.90;;;;;;2064510;28;20081;-70
2021/09/26 00:46:37;;;;;;;11.80;10.43;;;16.50;99.90;;;;;;2063949;28;20036;-70
2021/09/26 00:47:38;;;;;;;13.07;11.75;;;16.40;99.90;;;;;;2064165;28;20041;-70
2021/09/26 00:48:38;;;;;;;12.65;11.35;;;16.40;99.90;;;;;;2063391;28;20463;-71
2021/09/26 00:49:39;;;;;;;14.68;12.50;;;16.40;99.90;;;;;;2064767;28;20080;-70
2021/09/26 00:50:39;;;;;;;14.07;12.27;;;16.40;99.90;;;;;;2066505;28;20065;-70
2021/09/26 00:51:40;;;;;;;11.60;10.48;;;16.40;99.90;;;;;;2067612;28;20026;-70
2021/09/26 00:52:41;;;;;;;13.18;11.55;;;16.40;99.90;;;;;;2068377;28;20033;-70
2021/09/26 00:53:43;;;;;;;12.68;11.38;;;16.40;99.90;;;;;;2063535;28;20034;-70
2021/09/26 00:54:44;;;;;;;16.75;11.77;;;16.40;99.90;;;;;;2063359;28;20034;-70
2021/09/26 00:55:46;;;;;;;13.70;11.27;;;16.40;99.90;;;;;;2068499;28;20040;-70
2021/09/26 00:56:48;;;;;;;11.90;10.73;;;16.40;99.90;;;;;;2068730;28;20753;-70
2021/09/26 00:57:49;;;;;;;14.73;13.23;;;16.40;99.90;;;;;;2067523;28;20014;-70
2021/09/26 00:58:49;;;;;;;14.68;13.07;;;16.40;99.90;;;;;;2068278;28;20022;-70
2021/09/26 00:59:50;;;;;;;16.80;12.40;;;16.30;99.90;;;;;;2064048;28;20057;-70
2021/09/26 01:00:51;;;;;;;14.25;11.98;;;16.30;99.90;;;;;;2065556;28;20391;-70
2021/09/26 01:01:51;;;;;;;16.00;12.93;;;16.30;99.90;;;;;;2068037;28;20018;-70
2021/09/26 01:02:52;;;;;;;13.68;12.18;;;16.30;99.90;;;;;;2071654;28;20026;-70
2021/09/26 01:03:54;;;;;;;13.90;12.48;;;16.30;99.90;;;;;;2066780;28;20053;-70
2021/09/26 01:04:55;;;;;;;14.00;11.68;;;16.30;99.90;;;;;;2063166;28;20379;-70
2021/09/26 01:06:17;;;;;;;12.43;11.13;;;16.30;99.90;;;;;;2071276;28;20014;-70
2021/09/26 01:07:33;;;;;;;14.38;12.07;;;16.30;99.90;;;;;;2070442;28;20038;-70
2021/09/26 01:08:56;;;;;;;13.05;11.70;;;16.30;99.90;;;;;;2070709;28;20041;-70
2021/09/26 01:10:20;;;;;;;13.07;11.52;;;16.20;99.90;;;;;;2070705;28;20108;-70
2021/09/26 01:11:29;;;;;;;13.02;11.75;;;16.20;99.90;;;;;;2063627;28;20435;-70
2021/09/26 01:12:49;;;;;;;16.60;12.43;;;16.20;99.90;;;;;;2064457;28;20544;-70
2021/09/26 01:14:06;;;;;;;13.73;11.50;;;16.20;99.90;;;;;;2064706;28;20073;-70
2021/09/26 01:15:15;;;;;;;14.10;12.02;;;16.20;99.90;;;;;;2063711;28;20022;-70
2021/09/26 01:16:41;;;;;;;11.70;10.50;;;16.10;99.90;;;;;;2063929;28;20562;-70
2021/09/26 01:18:04;;;;;;;10.35;9.35;;;16.10;99.90;;;;;;2070319;28;20099;-70
2021/09/26 01:19:41;;;;;;;12.65;10.73;;;16.10;99.90;;;;;;2063513;28;20026;-70
2021/09/26 01:21:01;;;;;;;11.27;10.15;;;16.10;99.90;;;;;;2063941;28;20054;-70
2021/09/26 01:22:06;;;;;;;12.75;10.68;;;16.10;99.90;;;;;;2071356;28;20120;-70
2021/09/26 01:23:18;;;;;;;14.93;12.00;;;16.10;99.90;;;;;;2066370;28;20026;-70
2021/09/26 01:24:42;;;;;;;13.30;11.90;;;16.10;99.90;;;;;;2071788;28;20072;-70
2021/09/26 01:26:01;;;;;;;12.45;10.90;;;16.10;99.90;;;;;;2068638;28;20022;-70
2021/09/26 01:27:35;;;;;;;14.23;10.52;;;16.10;99.90;;;;;;2064433;28;20022;-70
2021/09/26 01:28:59;;;;;;;13.77;12.15;;;16.10;99.90;;;;;;2063709;28;20671;-70
2021/09/26 01:30:29;;;;;;;12.18;11.00;;;16.10;99.90;;;;;;2063766;28;20038;-70
2021/09/26 01:31:41;;;;;;;13.07;11.75;;;16.10;99.90;;;;;;2068677;28;20529;-70
2021/09/26 01:32:46;;;;;;;13.95;10.82;;;16.10;99.90;;;;;;2069714;28;20030;-70
2021/09/26 01:34:23;;;;;;;12.38;10.27;;;16.10;99.90;;;;;;2063856;28;20038;-70
2021/09/26 01:35:25;;;;;;;14.82;11.80;;;16.10;99.90;;;;;;2054841;28;20575;-70
2021/09/26 01:36:29;;;;;;;14.52;11.23;;;16.00;99.90;;;;;;2068499;28;20097;-70
2021/09/26 01:37:54;;;;;;;13.70;12.30;;;16.00;99.90;;;;;;2070065;28;20588;-70
2021/09/26 01:39:05;;;;;;;13.80;11.45;;;16.10;99.90;;;;;;2063398;28;20030;-70
2021/09/26 01:40:25;;;;;;;12.32;11.00;;;16.00;99.90;;;;;;2063548;28;20049;-70
2021/09/26 01:41:55;;;;;;;12.65;11.20;;;16.00;99.90;;;;;;2069984;28;20037;-70
2021/09/26 01:43:04;;;;;;;15.25;11.85;;;16.00;99.90;;;;;;2065961;28;20430;-70
2021/09/26 01:44:15;;;;;;;15.85;12.77;;;16.00;99.90;;;;;;2065694;28;20077;-70
2021/09/26 01:45:21;;;;;;;12.88;11.63;;;16.00;99.90;;;;;;2063983;28;20058;-70
2021/09/26 01:46:30;;;;;;;14.25;11.98;;;16.00;99.90;;;;;;2071509;28;20022;-70
2021/09/26 01:47:43;;;;;;;12.63;11.32;;;16.00;99.90;;;;;;2071769;28;20057;-70
2021/09/26 01:49:04;;;;;;;13.02;11.30;;;16.00;99.90;;;;;;2064231;28;20251;-70
2021/09/26 01:50:09;;;;;;;12.35;11.05;;;16.00;99.90;;;;;;2068669;28;20041;-70
2021/09/26 01:51:11;;;;;;;13.63;12.23;;;16.00;99.90;;;;;;2063336;28;20034;-70
2021/09/26 01:52:18;;;;;;;13.68;11.38;;;15.90;99.90;;;;;;2064542;28;20105;-70
2021/09/26 01:53:22;;;;;;;12.68;11.38;;;16.00;99.90;;;;;;2071787;28;20103;-70
2021/09/26 01:54:23;;;;;;;11.80;10.57;;;16.00;99.90;;;;;;2071601;28;20026;-70
2021/09/26 01:55:25;;;;;;;13.25;11.90;;;15.90;99.90;;;;;;2070155;28;20018;-70
2021/09/26 01:56:27;;;;;;;12.07;10.77;;;16.00;99.90;;;;;;2069180;28;20033;-70
2021/09/26 01:57:29;;;;;;;13.27;11.70;;;16.00;99.90;;;;;;2069955;28;20539;-70
2021/09/26 01:58:30;;;;;;;11.65;10.45;;;16.00;99.90;;;;;;2065909;28;20148;-70
2021/09/26 01:59:32;;;;;;;13.95;11.23;;;16.00;99.90;;;;;;2071615;28;20157;-70
2021/09/26 02:00:33;;;;;;;14.07;10.75;;;16.00;99.90;;;;;;2068074;28;20026;-70
2021/09/26 02:01:34;;;;;;;12.30;10.95;;;15.90;99.90;;;;;;2070071;28;20429;-70
2021/09/26 02:02:36;;;;;;;11.43;10.18;;;15.90;99.90;;;;;;2069542;28;20111;-70
2021/09/26 02:03:38;;;;;;;15.85;11.13;;;16.00;99.90;;;;;;2072275;28;20083;-70
2021/09/26 02:04:39;;;;;;;12.82;11.43;;;16.00;99.90;;;;;;2072897;28;20037;-70
2021/09/26 02:05:41;;;;;;;13.00;11.77;;;16.00;99.90;;;;;;2067637;28;20479;-70
2021/09/26 02:06:42;;;;;;;12.23;11.02;;;16.00;99.90;;;;;;2064434;28;20037;-70
2021/09/26 02:07:45;;;;;;;12.68;11.45;;;16.00;99.90;;;;;;2066236;28;20411;-70
2021/09/26 02:08:46;;;;;;;13.10;11.80;;;16.00;99.90;;;;;;2071961;28;20034;-70
2021/09/26 02:09:48;;;;;;;12.63;11.40;;;16.00;99.90;;;;;;2072845;28;20040;-70
2021/09/26 02:10:49;;;;;;;12.40;11.10;;;16.00;99.90;;;;;;2064724;28;20042;-70
2021/09/26 02:11:51;;;;;;;12.98;11.63;;;16.00;99.90;;;;;;2064829;28;20030;-70
2021/09/26 02:12:52;;;;;;;12.15;11.00;;;16.00;99.90;;;;;;2070534;28;20042;-70
2021/09/26 02:13:55;;;;;;;12.88;11.55;;;16.00;99.90;;;;;;2064725;28;20453;-70
2021/09/26 02:14:56;;;;;;;12.10;10.88;;;16.00;99.90;;;;;;2064566;28;20049;-70
2021/09/26 02:15:57;;;;;;;13.90;12.15;;;16.00;99.90;;;;;;2064706;28;20382;-70
2021/09/26 02:16:59;;;;;;;14.32;12.65;;;16.00;99.90;;;;;;2073272;28;20091;-70
2021/09/26 02:18:02;;;;;;;13.38;12.07;;;16.10;99.90;;;;;;2073020;28;20029;-70
2021/09/26 02:19:04;;;;;;;12.98;11.70;;;16.00;99.90;;;;;;2063545;28;20053;-70
2021/09/26 02:20:06;;;;;;;15.55;12.02;;;16.00;99.90;;;;;;2064581;28;20525;-70
2021/09/26 02:21:07;;;;;;;12.90;11.57;;;16.00;99.90;;;;;;2064535;28;20026;-70
2021/09/26 02:22:09;;;;;;;13.70;12.30;;;16.00;99.90;;;;;;2072447;28;20066;-70
2021/09/26 02:23:10;;;;;;;12.73;11.27;;;16.10;99.90;;;;;;2075886;28;20016;-70
2021/09/26 02:24:11;;;;;;;13.13;10.77;;;16.10;99.90;;;;;;2072985;28;20033;-70
2021/09/26 02:25:13;;;;;;;14.95;12.48;;;16.10;99.90;;;;;;2067730;28;20023;-70
2021/09/26 02:26:15;;;;;;;13.38;11.50;;;16.10;99.90;;;;;;2067421;28;20084;-70
2021/09/26 02:27:16;;;;;;;12.52;11.23;;;16.10;99.90;;;;;;2069335;28;20034;-70
2021/09/26 02:28:19;;;;;;;13.40;11.90;;;16.10;99.90;;;;;;2072381;28;20010;-70
2021/09/26 02:29:19;;;;;;;13.73;12.30;;;16.10;99.90;;;;;;2072256;28;20029;-70
2021/09/26 02:30:20;;;;;;;13.82;11.88;;;16.10;99.90;;;;;;2064834;28;20054;-70
2021/09/26 02:31:20;;;;;;;15.27;12.60;;;16.10;99.90;;;;;;2064502;28;20026;-70
2021/09/26 02:32:21;;;;;;;14.82;11.35;;;16.10;99.90;;;;;;2070555;28;20390;-70
2021/09/26 02:33:22;;;;;;;15.02;12.43;;;16.10;99.90;;;;;;2072494;28;20030;-70
2021/09/26 02:34:22;;;;;;;12.73;11.40;;;16.20;99.90;;;;;;2071347;28;20467;-70
2021/09/26 02:35:23;;;;;;;13.77;12.30;;;16.20;99.90;;;;;;2064651;28;20221;-70
2021/09/26 02:36:24;;;;;;;13.07;11.55;;;16.20;99.90;;;;;;2064589;28;20618;-70
2021/09/26 02:37:24;;;;;;;12.60;11.20;;;16.20;99.90;;;;;;2065327;28;20058;-70
2021/09/26 02:38:25;;;;;;;14.98;11.95;;;16.20;99.90;;;;;;2064450;28;20056;-70
2021/09/26 02:39:25;;;;;;;12.77;11.48;;;16.20;99.90;;;;;;2078561;28;20064;-70
2021/09/26 02:40:26;;;;;;;18.23;13.35;;;16.20;99.90;;;;;;2080341;28;20052;-70
2021/09/26 02:41:34;;;;;;;13.25;11.95;;;16.20;99.90;;;;;;2066454;28;20030;-70
2021/09/26 02:42:49;;;;;;;13.80;11.32;;;16.20;99.90;;;;;;2068693;28;20038;-70
2021/09/26 02:44:46;;;;;;;12.90;11.60;;;16.20;99.90;;;;;;2072652;28;20029;-70
2021/09/26 02:45:53;;;;;;;15.57;12.40;;;16.20;99.90;;;;;;2055304;28;20027;-70
2021/09/26 02:46:58;;;;;;;14.07;12.35;;;16.20;99.90;;;;;;2056487;28;20058;-70
2021/09/26 02:48:28;;;;;;;13.70;12.27;;;16.20;99.90;;;;;;2059798;28;20026;-70
2021/09/26 02:49:29;;;;;;;12.88;11.57;;;16.20;99.90;;;;;;2064494;28;20042;-70
2021/09/26 02:50:30;;;;;;;14.30;13.00;;;16.20;99.90;;;;;;2062172;28;20034;-70
2021/09/26 02:51:32;;;;;;;13.65;11.75;;;16.20;99.90;;;;;;2063385;28;20113;-70
2021/09/26 02:52:34;;;;;;;16.38;12.45;;;16.20;99.90;;;;;;2064995;28;20132;-70
2021/09/26 02:53:36;;;;;;;15.35;12.40;;;16.20;99.90;;;;;;2064571;28;20042;-70
2021/09/26 02:54:39;;;;;;;14.18;12.73;;;16.20;99.90;;;;;;2064525;28;20117;-70
2021/09/26 02:55:42;;;;;;;14.85;13.25;;;16.30;99.90;;;;;;2065408;28;20031;-70
2021/09/26 02:56:44;;;;;;;13.35;12.02;;;16.20;99.90;;;;;;2064314;28;20153;-70
2021/09/26 02:57:45;;;;;;;14.57;12.88;;;16.30;99.90;;;;;;2064772;28;20034;-70
2021/09/26 02:58:45;;;;;;;14.43;12.93;;;16.30;99.90;;;;;;2063917;28;20474;-70
2021/09/26 02:59:46;;;;;;;12.68;11.35;;;16.30;99.90;;;;;;2064509;28;21043;-70
2021/09/26 03:00:49;;;;;;;14.85;12.32;;;16.30;99.90;;;;;;2063669;28;20034;-70
2021/09/26 03:01:51;;;;;;;13.80;12.35;;;16.30;99.90;;;;;;2063782;28;20030;-70
2021/09/26 03:02:52;;;;;;;15.10;12.98;;;16.30;99.90;;;;;;2071446;28;20021;-70
2021/09/26 03:04:00;;;;;;;15.35;12.68;;;16.30;99.90;;;;;;2071564;28;20480;-70
2021/09/26 03:05:01;;;;;;;13.40;12.05;;;16.40;99.90;;;;;;2070529;28;20030;-70
2021/09/26 03:06:02;;;;;;;13.48;12.07;;;16.30;99.90;;;;;;2063344;28;20023;-70
2021/09/26 03:07:02;;;;;;;13.52;12.13;;;16.40;99.90;;;;;;2063629;28;20052;-70
2021/09/26 03:08:04;;;;;;;12.98;11.77;;;16.40;99.90;;;;;;2071556;28;20026;-70
2021/09/26 03:09:04;;;;;;;14.38;12.70;;;16.40;99.90;;;;;;2071120;28;20033;-70
2021/09/26 03:10:06;;;;;;;13.38;11.98;;;16.40;99.90;;;;;;2069310;28;20040;-70
2021/09/26 03:11:07;;;;;;;13.90;12.23;;;16.40;99.90;;;;;;2063665;28;20026;-70
2021/09/26 03:12:11;;;;;;;11.73;10.52;;;16.40;99.90;;;;;;2067507;28;20049;-70
2021/09/26 03:13:12;;;;;;;12.68;11.38;;;16.50;99.90;;;;;;2070186;28;20056;-70
2021/09/26 03:14:13;;;;;;;12.95;11.70;;;16.40;99.90;;;;;;2063357;28;20061;-70
2021/09/26 03:15:13;;;;;;;13.57;12.18;;;16.50;99.90;;;;;;2063128;28;20026;-70
2021/09/26 03:16:14;;;;;;;13.70;12.30;;;16.40;99.90;;;;;;2062411;28;20041;-70
2021/09/26 03:17:15;;;;;;;12.43;11.13;;;16.50;99.90;;;;;;2064343;28;20502;-70
2021/09/26 03:18:15;;;;;;;12.68;11.48;;;16.50;99.90;;;;;;2070993;28;20018;-70
2021/09/26 03:19:16;;;;;;;12.13;10.93;;;16.50;99.90;;;;;;2071062;28;20045;-70
2021/09/26 03:20:17;;;;;;;14.13;11.85;;;16.50;99.90;;;;;;2065575;28;20030;-70
2021/09/26 03:21:18;;;;;;;13.38;11.98;;;16.50;99.90;;;;;;2063061;28;20026;-70
2021/09/26 03:22:19;;;;;;;14.48;12.98;;;16.60;99.90;;;;;;2065141;28;20447;-70
2021/09/26 03:23:19;;;;;;;12.77;11.48;;;16.60;99.90;;;;;;2070941;28;20040;-70
2021/09/26 03:24:20;;;;;;;13.75;11.32;;;16.60;99.90;;;;;;2071364;28;20482;-70
2021/09/26 03:25:21;;;;;;;13.10;11.32;;;16.60;99.90;;;;;;2070632;28;20029;-70
2021/09/26 03:26:22;;;;;;;13.30;11.52;;;16.60;99.90;;;;;;2064667;28;20034;-70
2021/09/26 03:27:23;;;;;;;12.75;11.25;;;16.60;99.90;;;;;;2069284;28;20053;-70
2021/09/26 03:28:23;;;;;;;13.23;11.82;;;16.60;99.90;;;;;;2069967;28;20026;-70
2021/09/26 03:29:24;;;;;;;14.23;11.52;;;16.60;99.90;;;;;;2071490;28;20033;-70
2021/09/26 03:30:24;;;;;;;14.20;11.38;;;16.60;99.90;;;;;;2071082;28;20061;-70
2021/09/26 03:31:26;;;;;;;13.35;11.48;;;16.60;99.90;;;;;;2066762;28;20123;-70
2021/09/26 03:32:26;;;;;;;11.88;10.63;;;16.60;99.90;;;;;;2063032;28;20026;-70
2021/09/26 03:33:27;;;;;;;14.30;11.63;;;16.70;99.90;;;;;;2064919;28;20019;-70
2021/09/26 03:34:28;;;;;;;12.73;11.23;;;16.70;99.90;;;;;;2071258;28;20370;-70
2021/09/26 03:35:28;;;;;;;15.80;11.13;;;16.70;99.90;;;;;;2071169;28;20026;-70
2021/09/26 03:36:29;;;;;;;11.35;10.25;;;16.70;99.90;;;;;;2064984;28;20452;-70
2021/09/26 03:37:29;;;;;;;13.48;10.57;;;16.70;99.90;;;;;;2067207;28;20030;-70
2021/09/26 03:38:30;;;;;;;11.93;10.57;;;16.70;99.90;;;;;;2071872;28;20534;-70
2021/09/26 03:39:31;;;;;;;13.48;11.32;;;16.70;99.90;;;;;;2072186;28;20486;-70
2021/09/26 03:40:32;;;;;;;13.30;11.73;;;16.80;99.90;;;;;;2072691;28;20026;-70
2021/09/26 03:41:32;;;;;;;12.93;10.85;;;16.70;99.90;;;;;;2064465;28;20023;-70
2021/09/26 03:42:33;;;;;;;11.50;10.40;;;16.80;99.90;;;;;;2064931;28;20025;-70
2021/09/26 03:43:34;;;;;;;11.23;10.13;;;16.80;99.90;;;;;;2067478;28;20037;-70
2021/09/26 03:44:35;;;;;;;12.20;11.10;;;16.80;99.90;;;;;;2072240;28;20038;-70
2021/09/26 03:45:35;;;;;;;12.27;11.07;;;16.80;99.90;;;;;;2072823;28;20050;-70
2021/09/26 03:46:36;;;;;;;12.15;10.98;;;16.80;99.90;;;;;;2072247;28;20092;-70
2021/09/26 03:47:37;;;;;;;12.05;10.25;;;16.80;99.90;;;;;;2071887;28;20034;-70
2021/09/26 03:48:37;;;;;;;14.40;11.43;;;16.80;99.90;;;;;;2064564;28;20050;-70
2021/09/26 03:49:38;;;;;;;11.43;10.23;;;16.80;99.90;;;;;;2072326;28;20030;-70
2021/09/26 03:50:38;;;;;;;11.13;10.07;;;16.80;99.90;;;;;;2070047;28;20018;-70
2021/09/26 03:51:39;;;;;;;14.93;10.65;;;16.80;99.90;;;;;;2064556;28;20097;-70
2021/09/26 03:52:41;;;;;;;11.23;10.13;;;16.80;99.90;;;;;;2069266;28;20033;-70
2021/09/26 03:53:41;;;;;;;12.38;11.18;;;16.80;99.90;;;;;;2067386;28;20145;-70
2021/09/26 03:54:42;;;;;;;10.85;9.85;;;16.90;99.90;;;;;;2064353;28;20102;-70
2021/09/26 03:55:43;;;;;;;13.85;9.68;;;16.90;99.90;;;;;;2067656;28;20105;-70
2021/09/26 03:56:44;;;;;;;11.20;10.10;;;16.90;99.90;;;;;;2070871;28;20208;-70
2021/09/26 03:57:45;;;;;;;11.23;10.10;;;16.90;99.90;;;;;;2064277;28;20062;-70
2021/09/26 03:58:46;;;;;;;11.00;9.85;;;16.90;99.90;;;;;;2071292;28;20458;-70
2021/09/26 03:59:47;;;;;;;12.52;10.50;;;16.90;99.90;;;;;;2072686;28;21118;-70
2021/09/26 04:00:47;;;;;;;11.38;10.38;;;16.90;99.90;;;;;;2065727;28;20038;-70
2021/09/26 04:01:49;;;;;;;11.50;10.30;;;16.90;99.90;;;;;;2070682;28;20104;-70
2021/09/26 04:02:50;;;;;;;12.20;10.75;;;16.90;99.90;;;;;;2067873;28;20502;-70
2021/09/26 04:03:51;;;;;;;11.43;9.98;;;16.90;99.90;;;;;;2064568;28;20379;-70
2021/09/26 04:04:51;;;;;;;11.98;10.73;;;16.90;99.90;;;;;;2064577;28;20093;-70
2021/09/26 04:05:52;;;;;;;10.85;9.75;;;16.90;99.90;;;;;;2064108;28;20034;-70
2021/09/26 04:06:53;;;;;;;10.82;9.73;;;16.90;99.90;;;;;;2065366;28;20038;-70
2021/09/26 04:07:54;;;;;;;10.65;9.65;;;16.90;99.90;;;;;;2070291;28;20077;-70
2021/09/26 04:08:54;;;;;;;11.45;10.07;;;16.90;99.90;;;;;;2065727;28;20030;-70
2021/09/26 04:09:55;;;;;;;10.60;9.60;;;16.90;99.90;;;;;;2063557;28;20062;-70
2021/09/26 04:10:55;;;;;;;11.48;10.10;;;16.90;99.90;;;;;;2064530;28;20033;-70
2021/09/26 04:11:56;;;;;;;11.40;9.60;;;16.90;99.90;;;;;;2064944;28;20114;-70
2021/09/26 04:12:56;;;;;;;12.35;9.48;;;17.00;99.90;;;;;;2066495;28;20493;-70
2021/09/26 04:13:57;;;;;;;10.73;9.63;;;16.90;99.90;;;;;;2065293;28;20022;-70
2021/09/26 04:14:57;;;;;;;11.93;10.10;;;16.90;99.90;;;;;;2064368;28;20108;-70
2021/09/26 04:15:58;;;;;;;12.50;10.70;;;16.90;99.90;;;;;;2064099;28;20034;-70
2021/09/26 04:16:59;;;;;;;10.82;9.77;;;16.90;99.90;;;;;;2065443;28;20510;-70
2021/09/26 04:17:59;;;;;;;11.02;9.85;;;16.90;99.90;;;;;;2068005;28;20049;-70
2021/09/26 04:19:00;;;;;;;13.27;9.63;;;17.00;99.90;;;;;;2063896;28;20034;-70
2021/09/26 04:20:02;;;;;;;13.98;10.45;;;17.00;99.90;;;;;;2064150;28;20470;-70
2021/09/26 04:21:03;;;;;;;10.65;9.55;;;17.00;99.90;;;;;;2064299;28;20057;-70
2021/09/26 04:22:03;;;;;;;12.07;10.10;;;17.00;99.90;;;;;;2068830;28;20100;-70
2021/09/26 04:23:04;;;;;;;13.02;10.13;;;17.00;99.90;;;;;;2072384;28;20034;-70
2021/09/26 04:24:04;;;;;;;10.60;9.45;;;17.00;99.90;;;;;;2072524;28;20640;-70
2021/09/26 04:25:06;;;;;;;12.98;10.10;;;17.00;99.90;;;;;;2066796;28;20022;-70
2021/09/26 04:26:06;;;;;;;10.73;9.63;;;17.00;99.90;;;;;;2065066;28;20687;-70
2021/09/26 04:27:07;;;;;;;14.23;9.18;;;17.00;99.90;;;;;;2064221;28;20096;-70
2021/09/26 04:28:08;;;;;;;11.00;9.63;;;17.00;99.90;;;;;;2063530;28;20061;-70
2021/09/26 04:29:09;;;;;;;10.55;9.57;;;17.00;99.90;;;;;;2067227;28;20034;-70
2021/09/26 04:30:10;;;;;;;11.02;9.57;;;17.00;99.90;;;;;;2072141;28;20034;-72
2021/09/26 04:31:11;;;;;;;10.57;9.43;;;17.00;99.90;;;;;;2069934;28;20030;-70
2021/09/26 04:32:11;;;;;;;10.40;9.27;;;16.90;99.90;;;;;;2064196;28;20030;-70
2021/09/26 04:33:12;;;;;;;11.88;10.18;;;17.00;99.90;;;;;;2064052;28;20026;-70
2021/09/26 04:34:12;;;;;;;10.20;9.20;;;17.00;99.90;;;;;;2067699;28;20116;-70
2021/09/26 04:35:13;;;;;;;12.57;10.13;;;17.00;99.90;;;;;;2072338;28;20080;-70
2021/09/26 04:36:13;;;;;;;10.60;9.60;;;17.00;99.90;;;;;;2070545;28;20485;-70
2021/09/26 04:37:14;;;;;;;11.48;10.10;;;17.00;99.90;;;;;;2070383;28;20113;-70
2021/09/26 04:38:15;;;;;;;10.63;9.30;;;17.00;99.90;;;;;;2063158;28;20029;-70
2021/09/26 04:39:15;;;;;;;13.70;9.43;;;17.00;99.90;;;;;;2063806;28;20022;-70
2021/09/26 04:40:16;;;;;;;9.63;8.80;;;17.00;99.90;;;;;;2064194;28;20081;-70
2021/09/26 04:41:16;;;;;;;9.85;8.95;;;17.00;99.90;;;;;;2064133;28;20050;-70
2021/09/26 04:42:17;;;;;;;10.35;9.35;;;17.00;99.90;;;;;;2065593;28;20018;-70
2021/09/26 04:43:18;;;;;;;10.10;9.07;;;17.00;99.90;;;;;;2072103;28;20036;-70
2021/09/26 04:44:18;;;;;;;11.50;10.40;;;17.00;99.90;;;;;;2068917;28;20030;-70
2021/09/26 04:45:19;;;;;;;12.02;9.43;;;17.00;99.90;;;;;;2063987;28;20083;-70
2021/09/26 04:46:20;;;;;;;10.93;9.82;;;17.00;99.90;;;;;;2064127;28;20018;-70
2021/09/26 04:47:20;;;;;;;10.32;9.25;;;17.00;99.90;;;;;;2065045;28;20379;-70
2021/09/26 04:48:21;;;;;;;11.63;9.48;;;17.00;99.90;;;;;;2062964;28;20040;-70
2021/09/26 04:49:27;;;;;;;11.27;9.52;;;17.00;99.90;;;;;;2067522;28;20025;-70
2021/09/26 04:50:28;;;;;;;9.88;9.00;;;17.00;99.90;;;;;;2064490;28;20405;-70
2021/09/26 04:51:29;;;;;;;11.18;9.35;;;17.00;99.90;;;;;;2063774;28;20034;-70
2021/09/26 04:52:30;;;;;;;9.23;8.43;;;17.00;99.90;;;;;;2064565;28;20050;-70
2021/09/26 04:53:30;;;;;;;10.57;9.55;;;17.00;99.90;;;;;;2063874;28;20364;-70
2021/09/26 04:54:31;;;;;;;12.73;9.23;;;17.00;99.90;;;;;;2064086;28;20082;-70
2021/09/26 04:55:32;;;;;;;10.30;9.30;;;17.00;99.90;;;;;;2064182;28;20045;-70
2021/09/26 04:56:32;;;;;;;10.18;9.18;;;17.00;99.90;;;;;;2070426;28;20077;-70
2021/09/26 04:57:34;;;;;;;10.05;9.00;;;17.00;99.90;;;;;;2072043;28;20097;-70
2021/09/26 04:58:34;;;;;;;11.48;9.13;;;17.00;99.90;;;;;;2071608;28;20069;-70
2021/09/26 04:59:35;;;;;;;10.07;9.00;;;17.00;99.90;;;;;;2071904;28;20029;-70
2021/09/26 05:00:36;;;;;;;10.65;9.65;;;17.10;99.90;;;;;;2070453;28;20455;-70
2021/09/26 05:01:37;;;;;;;10.60;9.60;;;17.10;99.90;;;;;;2072074;28;20029;-70
2021/09/26 05:02:38;;;;;;;9.82;8.80;;;17.10;99.90;;;;;;2067982;28;20033;-70
2021/09/26 05:03:38;;;;;;;10.75;9.35;;;17.10;99.90;;;;;;2071346;28;20040;-70
2021/09/26 05:04:39;;;;;;;12.27;9.27;;;17.10;99.90;;;;;;2072655;28;20039;-70
2021/09/26 05:05:40;;;;;;;9.95;8.95;;;17.00;99.90;;;;;;2069774;28;20425;-70
2021/09/26 05:06:41;;;;;;;9.10;8.27;;;17.10;99.90;;;;;;2071922;28;20022;-70
2021/09/26 05:07:41;;;;;;;9.40;8.50;;;17.10;99.90;;;;;;2067538;28;20046;-70
2021/09/26 05:08:43;;;;;;;9.73;8.70;;;17.10;99.90;;;;;;2067076;28;20068;-70
2021/09/26 05:09:43;;;;;;;9.43;8.57;;;17.10;99.90;;;;;;2067205;28;20068;-70
2021/09/26 05:10:44;;;;;;;9.80;8.77;;;17.10;99.90;;;;;;2071579;28;20088;-70
2021/09/26 05:11:45;;;;;;;9.88;8.98;;;17.00;99.90;;;;;;2069091;28;20560;-70
2021/09/26 05:12:45;;;;;;;9.65;8.75;;;17.10;99.90;;;;;;2069538;28;20034;-70
2021/09/26 05:13:46;;;;;;;10.52;9.27;;;17.10;99.90;;;;;;2065635;28;20582;-70
2021/09/26 05:14:46;;;;;;;9.45;8.55;;;17.10;99.90;;;;;;2063815;28;20364;-70
2021/09/26 05:15:47;;;;;;;9.55;8.25;;;17.10;99.90;;;;;;2063540;28;20034;-70
2021/09/26 05:16:48;;;;;;;9.38;8.48;;;17.10;99.90;;;;;;2066092;28;20034;-70
2021/09/26 05:17:49;;;;;;;9.13;8.32;;;17.10;99.90;;;;;;2074908;28;20033;-70
2021/09/26 05:18:49;;;;;;;10.65;9.55;;;17.10;99.90;;;;;;2071747;28;20052;-70
2021/09/26 05:19:50;;;;;;;9.63;8.73;;;17.10;99.90;;;;;;2071685;28;20026;-70
2021/09/26 05:20:54;;;;;;;10.73;9.60;;;17.10;99.90;;;;;;2071712;28;20084;-70
2021/09/26 05:21:54;;;;;;;11.48;8.75;;;17.10;99.90;;;;;;2065571;28;20022;-70
2021/09/26 05:22:55;;;;;;;8.50;7.75;;;17.10;99.90;;;;;;2070412;28;20026;-70